Time;durP1;ratioP1;P1;durP2;ratioP2;P2;SDS_P1;SDS_P2;PMS_P1;PMS_P2;Temp;Humidity;BMP_temperature;BMP_pressure;BME280_temperature;BME280_humidity;BME280_pressure;Samples;Min_cycle;Max_cycle;Signal;HPM_P1;HPM_P2
2021/07/20 00:00:26;;;;;;;5.63;2.97;;;14.40;99.90;;;;;;5100695;28;20874;-44
2021/07/20 00:02:55;;;;;;;10.77;3.27;;;14.30;99.90;;;;;;5091269;28;20201;-44
2021/07/20 00:05:24;;;;;;;5.03;3.00;;;14.40;99.90;;;;;;5093106;28;20210;-44
2021/07/20 00:07:51;;;;;;;10.40;3.43;;;14.40;99.90;;;;;;5104797;28;20197;-44
2021/07/20 00:10:22;;;;;;;4.93;3.20;;;14.40;99.90;;;;;;5100444;27;20190;-44
2021/07/20 00:12:50;;;;;;;5.20;2.93;;;14.40;99.90;;;;;;5101607;28;20209;-43
2021/07/20 00:15:20;;;;;;;4.53;3.90;;;14.40;99.90;;;;;;5101079;28;20201;-45
2021/07/20 00:17:48;;;;;;;3.37;3.07;;;14.40;99.90;;;;;;5090866;28;20197;-44
2021/07/20 00:20:17;;;;;;;7.90;3.67;;;14.40;99.90;;;;;;5098042;28;20193;-44
2021/07/20 00:22:44;;;;;;;5.60;3.50;;;14.40;99.90;;;;;;5103367;28;20201;-44
2021/07/20 00:25:12;;;;;;;4.07;2.87;;;14.50;99.90;;;;;;5102300;28;20209;-45
2021/07/20 00:27:39;;;;;;;4.83;2.70;;;14.40;99.90;;;;;;5102749;28;20177;-44
2021/07/20 00:30:08;;;;;;;6.17;3.13;;;14.40;99.90;;;;;;5102952;28;20658;-47
2021/07/20 00:32:36;;;;;;;3.37;2.87;;;14.40;99.90;;;;;;5100526;28;20823;-44
2021/07/20 00:35:05;;;;;;;4.33;3.27;;;14.40;99.90;;;;;;5088246;28;20588;-44
2021/07/20 00:37:32;;;;;;;6.47;2.97;;;14.40;99.90;;;;;;5091860;28;20516;-44
2021/07/20 00:39:59;;;;;;;5.73;3.10;;;14.40;99.90;;;;;;5104215;28;20193;-46
2021/07/20 00:42:26;;;;;;;6.57;3.10;;;14.40;99.90;;;;;;5096515;28;20276;-44
2021/07/20 00:44:52;;;;;;;3.77;2.70;;;14.30;99.90;;;;;;5094839;28;20651;-46
2021/07/20 00:47:19;;;;;;;4.70;2.90;;;14.30;99.90;;;;;;5100069;28;20200;-46
2021/07/20 00:49:48;;;;;;;3.93;2.87;;;14.40;99.90;;;;;;5089996;28;20201;-44
2021/07/20 00:52:15;;;;;;;2.87;2.50;;;14.30;99.90;;;;;;5096073;28;20201;-47
2021/07/20 00:54:43;;;;;;;3.47;2.60;;;14.30;99.90;;;;;;5102122;28;20698;-44
2021/07/20 00:57:11;;;;;;;4.13;3.33;;;14.30;99.90;;;;;;5100660;28;20197;-44
2021/07/20 00:59:39;;;;;;;6.50;3.20;;;14.20;99.90;;;;;;5101843;28;20193;-44
2021/07/20 01:02:07;;;;;;;3.87;3.17;;;14.20;99.90;;;;;;5102980;28;20197;-44
2021/07/20 01:04:34;;;;;;;3.20;2.90;;;14.10;99.90;;;;;;5087490;28;20225;-45
2021/07/20 01:07:06;;;;;;;5.10;3.93;;;14.10;99.90;;;;;;5094061;28;20209;-44
2021/07/20 01:09:34;;;;;;;4.93;3.07;;;14.00;99.90;;;;;;5100319;28;20217;-44
2021/07/20 01:12:02;;;;;;;5.90;3.60;;;14.10;99.90;;;;;;5101606;28;20195;-47
2021/07/20 01:14:36;;;;;;;7.87;3.60;;;14.10;99.90;;;;;;5099083;28;20308;-45
2021/07/20 01:17:05;;;;;;;9.23;3.40;;;14.10;99.90;;;;;;5093029;28;20605;-44
2021/07/20 01:19:36;;;;;;;3.00;2.60;;;14.10;99.90;;;;;;5103250;28;20215;-44
2021/07/20 01:22:06;;;;;;;3.67;2.90;;;14.10;99.90;;;;;;5092582;28;20203;-44
2021/07/20 01:24:37;;;;;;;5.37;3.30;;;14.10;99.90;;;;;;5100452;28;21103;-44
2021/07/20 01:27:04;;;;;;;6.57;3.70;;;14.20;99.90;;;;;;5107401;28;20291;-46
2021/07/20 01:29:31;;;;;;;4.77;3.60;;;14.20;99.90;;;;;;5103373;28;20211;-44
2021/07/20 01:32:02;;;;;;;3.53;3.23;;;14.10;99.90;;;;;;5098738;28;20283;-44
2021/07/20 01:34:30;;;;;;;4.50;3.53;;;14.10;99.90;;;;;;5102691;28;20247;-44
2021/07/20 01:36:58;;;;;;;7.93;3.90;;;14.10;99.90;;;;;;5092298;28;20213;-44
2021/07/20 01:39:25;;;;;;;4.80;3.87;;;14.10;99.90;;;;;;5091301;28;20199;-44
2021/07/20 01:41:56;;;;;;;4.90;3.63;;;14.10;99.90;;;;;;5106318;28;20197;-44
2021/07/20 01:44:24;;;;;;;6.50;3.83;;;14.00;99.90;;;;;;5097436;28;20205;-44
2021/07/20 01:46:56;;;;;;;5.20;3.70;;;14.00;99.90;;;;;;5107423;28;20276;-47
2021/07/20 01:49:24;;;;;;;7.13;3.30;;;13.90;99.90;;;;;;5101718;28;20186;-44
2021/07/20 01:51:58;;;;;;;7.50;3.70;;;13.90;99.90;;;;;;5093343;28;20208;-46
2021/07/20 01:54:26;;;;;;;5.73;4.10;;;13.80;99.90;;;;;;5095614;28;20286;-44
2021/07/20 01:56:53;;;;;;;5.50;3.93;;;13.80;99.90;;;;;;5105967;28;20557;-44
2021/07/20 01:59:27;;;;;;;4.30;3.80;;;13.80;99.90;;;;;;5101423;28;20903;-44
2021/07/20 02:02:31;;;;;;;4.80;3.43;;;13.80;99.90;;;;;;5079229;28;20385;-45
2021/07/20 02:10:42;;;;;;;5.50;3.83;;;13.80;99.90;;;;;;5102997;28;20894;-44
2021/07/20 02:13:16;;;;;;;3.37;3.07;;;13.80;99.90;;;;;;5103504;28;20271;-45
2021/07/20 02:16:04;;;;;;;5.13;3.07;;;13.70;99.90;;;;;;5106626;28;20209;-45
2021/07/20 02:18:43;;;;;;;5.03;3.50;;;13.70;99.90;;;;;;5104282;28;20192;-44
2021/07/20 02:21:17;;;;;;;4.97;3.60;;;13.60;99.90;;;;;;5102692;28;20189;-45
2021/07/20 02:23:50;;;;;;;4.30;3.23;;;13.60;99.90;;;;;;5092721;28;20274;-44
2021/07/20 02:26:17;;;;;;;7.67;4.47;;;13.60;99.90;;;;;;5103439;28;20272;-45
2021/07/20 02:28:45;;;;;;;4.13;3.80;;;13.60;99.90;;;;;;5105227;28;20662;-45
2021/07/20 02:31:15;;;;;;;4.90;3.63;;;13.50;99.90;;;;;;5102949;28;20296;-47
2021/07/20 02:33:42;;;;;;;5.03;4.10;;;13.50;99.90;;;;;;5105413;28;20713;-44
2021/07/20 02:36:11;;;;;;;8.00;4.40;;;13.50;99.90;;;;;;5103131;28;20197;-45
2021/07/20 02:38:39;;;;;;;6.33;4.50;;;13.50;99.90;;;;;;5090535;28;20209;-44
2021/07/20 02:41:11;;;;;;;7.30;4.20;;;13.50;99.90;;;;;;5104629;28;20188;-45
2021/07/20 02:43:40;;;;;;;8.33;4.60;;;13.60;99.90;;;;;;5103066;28;20216;-44
2021/07/20 02:46:08;;;;;;;9.63;4.90;;;13.50;99.90;;;;;;5105059;28;20193;-46
2021/07/20 02:48:37;;;;;;;6.57;4.60;;;13.60;99.90;;;;;;5104111;28;20192;-43
2021/07/20 02:51:04;;;;;;;4.97;4.47;;;13.60;99.90;;;;;;5104047;28;20189;-44
2021/07/20 02:53:44;;;;;;;5.47;4.40;;;13.60;99.90;;;;;;5089329;28;20278;-47
2021/07/20 02:56:15;;;;;;;5.20;4.50;;;13.60;99.90;;;;;;5101882;28;20186;-46
2021/07/20 02:58:49;;;;;;;6.13;4.30;;;13.60;99.90;;;;;;5105689;28;20197;-44
2021/07/20 03:01:27;;;;;;;9.10;4.20;;;13.60;99.90;;;;;;5100683;28;20193;-44
2021/07/20 03:03:57;;;;;;;7.30;5.03;;;13.60;99.90;;;;;;5104684;28;20209;-44
2021/07/20 03:06:30;;;;;;;6.70;4.17;;;13.50;99.90;;;;;;5102276;28;20277;-43
2021/07/20 03:08:59;;;;;;;8.93;4.73;;;13.50;99.90;;;;;;5090346;28;20571;-44
2021/07/20 03:11:58;;;;;;;7.70;4.47;;;13.50;99.90;;;;;;5090338;28;20205;-44
2021/07/20 03:14:27;;;;;;;8.63;4.60;;;13.40;99.90;;;;;;5100982;28;20394;-47
2021/07/20 03:17:21;;;;;;;7.53;4.67;;;13.40;99.90;;;;;;5102157;28;20192;-43
2021/07/20 03:19:51;;;;;;;8.63;4.50;;;13.30;99.90;;;;;;5105470;28;20197;-44
2021/07/20 03:22:29;;;;;;;5.87;4.77;;;13.40;99.90;;;;;;5100196;28;20208;-44
2021/07/20 03:25:02;;;;;;;5.17;4.50;;;13.40;99.90;;;;;;5090367;28;20734;-44
2021/07/20 03:27:32;;;;;;;8.90;4.87;;;13.30;99.90;;;;;;5100833;28;20281;-44
2021/07/20 03:30:04;;;;;;;7.03;5.43;;;13.30;99.90;;;;;;5104954;28;20205;-45
2021/07/20 03:32:35;;;;;;;5.83;4.13;;;13.30;99.90;;;;;;5102909;28;20181;-44
2021/07/20 03:35:07;;;;;;;6.10;4.97;;;13.20;99.90;;;;;;5103547;28;20218;-45
2021/07/20 03:37:34;;;;;;;6.83;5.00;;;13.20;99.90;;;;;;5101326;28;20896;-43
2021/07/20 03:40:03;;;;;;;7.07;4.73;;;13.30;99.90;;;;;;5101102;28;20204;-45
2021/07/20 03:42:34;;;;;;;6.90;4.83;;;13.30;99.90;;;;;;5093902;28;20207;-46
2021/07/20 03:45:02;;;;;;;5.87;5.10;;;13.20;99.90;;;;;;5103583;28;20240;-46
2021/07/20 03:47:29;;;;;;;7.80;4.97;;;13.20;99.90;;;;;;5101493;28;20181;-44
2021/07/20 03:49:56;;;;;;;8.37;5.33;;;13.20;99.90;;;;;;5103525;28;20246;-44
2021/07/20 03:52:30;;;;;;;7.37;4.90;;;13.20;99.90;;;;;;5099372;28;20193;-44
2021/07/20 03:54:58;;;;;;;6.63;4.90;;;13.20;99.90;;;;;;5102422;28;20217;-45
2021/07/20 03:57:25;;;;;;;7.67;5.00;;;13.20;99.90;;;;;;5085325;28;20193;-45
2021/07/20 03:59:56;;;;;;;6.53;5.37;;;13.20;99.90;;;;;;5104435;28;20205;-46
2021/07/20 04:02:47;;;;;;;4.83;4.43;;;13.20;99.90;;;;;;5104052;28;20212;-43
2021/07/20 04:05:21;;;;;;;6.13;4.93;;;13.20;99.90;;;;;;5099294;28;20300;-44
2021/07/20 04:07:54;;;;;;;6.37;4.50;;;13.10;99.90;;;;;;5099242;28;20670;-44
2021/07/20 04:10:31;;;;;;;6.23;5.27;;;13.20;99.90;;;;;;5099925;28;20288;-43
2021/07/20 04:13:12;;;;;;;6.53;4.73;;;13.20;99.90;;;;;;5086440;28;20205;-47
2021/07/20 04:15:53;;;;;;;5.30;4.80;;;13.20;99.90;;;;;;5102861;28;20936;-44
2021/07/20 04:18:24;;;;;;;8.47;4.90;;;13.20;99.90;;;;;;5100632;28;20196;-44
2021/07/20 04:20:52;;;;;;;7.67;4.83;;;13.20;99.90;;;;;;5103111;28;20190;-44
2021/07/20 04:23:22;;;;;;;5.50;4.93;;;13.20;99.90;;;;;;5099427;28;20224;-44
2021/07/20 04:26:01;;;;;;;8.97;5.13;;;13.20;99.90;;;;;;5102901;28;20197;-44
2021/07/20 04:28:33;;;;;;;9.27;4.97;;;13.20;99.90;;;;;;5087744;28;20217;-46
2021/07/20 04:31:00;;;;;;;6.87;5.30;;;13.20;99.90;;;;;;5103621;28;20196;-44
2021/07/20 04:33:32;;;;;;;9.53;5.30;;;13.30;99.90;;;;;;5099735;28;20209;-45
2021/07/20 04:36:20;;;;;;;6.27;4.87;;;13.30;99.90;;;;;;5067996;28;20655;-45
2021/07/20 04:38:52;;;;;;;6.30;4.90;;;13.40;99.90;;;;;;5102409;28;20189;-45
2021/07/20 04:41:20;;;;;;;5.63;4.57;;;13.40;99.90;;;;;;5099016;28;20235;-45
2021/07/20 04:43:48;;;;;;;5.30;4.27;;;13.50;99.90;;;;;;5088503;28;20233;-44
2021/07/20 04:46:25;;;;;;;6.03;5.10;;;13.50;99.90;;;;;;5098616;28;20177;-47
2021/07/20 04:48:57;;;;;;;5.67;4.63;;;13.50;99.90;;;;;;5102561;28;20250;-45
2021/07/20 04:51:31;;;;;;;5.73;4.63;;;13.50;99.90;;;;;;5099235;28;20285;-44
2021/07/20 04:54:03;;;;;;;6.70;5.33;;;13.60;99.90;;;;;;5102334;28;20239;-44
2021/07/20 04:56:32;;;;;;;7.73;4.77;;;13.60;99.90;;;;;;5099470;28;20193;-44
2021/07/20 04:58:59;;;;;;;5.63;4.30;;;13.60;99.90;;;;;;5103623;28;20205;-44
2021/07/20 05:01:27;;;;;;;6.17;5.00;;;13.70;99.90;;;;;;5085323;28;20281;-44
2021/07/20 05:03:57;;;;;;;7.47;4.10;;;13.70;99.90;;;;;;5102568;28;20636;-45
2021/07/20 05:06:30;;;;;;;5.57;4.60;;;13.80;99.90;;;;;;5097321;28;20485;-44
2021/07/20 05:08:57;;;;;;;5.97;4.30;;;13.90;99.90;;;;;;5088197;28;20209;-45
2021/07/20 05:11:26;;;;;;;6.07;4.23;;;13.90;99.90;;;;;;5098652;28;20209;-44
2021/07/20 05:13:52;;;;;;;6.87;4.50;;;13.90;99.90;;;;;;5094322;28;20228;-45
2021/07/20 05:16:23;;;;;;;7.23;4.07;;;14.00;99.90;;;;;;5085927;28;20198;-45
2021/07/20 05:18:55;;;;;;;7.10;4.40;;;14.00;99.90;;;;;;5100751;28;20204;-47
2021/07/20 05:21:43;;;;;;;4.67;4.27;;;14.00;99.90;;;;;;5098250;28;20576;-44
2021/07/20 05:24:12;;;;;;;7.63;4.27;;;14.10;99.90;;;;;;5082021;28;21029;-44
2021/07/20 05:26:46;;;;;;;7.77;3.90;;;14.10;99.90;;;;;;5100528;28;20227;-44
2021/07/20 05:29:15;;;;;;;7.00;4.40;;;14.10;99.90;;;;;;5077103;28;20204;-44
2021/07/20 05:31:51;;;;;;;7.03;4.00;;;14.20;99.90;;;;;;5086267;28;20213;-44
2021/07/20 05:34:19;;;;;;;8.53;3.90;;;14.20;99.90;;;;;;5099487;28;20198;-48
2021/07/20 05:36:47;;;;;;;7.90;3.93;;;14.20;99.90;;;;;;5102590;28;20196;-44
2021/07/20 05:39:18;;;;;;;7.00;3.73;;;14.30;99.90;;;;;;5098701;28;20689;-44
2021/07/20 05:41:54;;;;;;;4.20;3.70;;;14.40;99.90;;;;;;5087535;28;20262;-44
2021/07/20 05:44:23;;;;;;;3.97;3.33;;;14.40;99.90;;;;;;5078409;28;20226;-44
2021/07/20 05:46:50;;;;;;;9.13;3.80;;;14.50;99.90;;;;;;5089771;28;20209;-43
2021/07/20 05:49:17;;;;;;;4.53;3.23;;;14.50;99.90;;;;;;5098951;28;20185;-45
2021/07/20 05:51:45;;;;;;;6.17;3.47;;;14.50;99.90;;;;;;5102185;28;20243;-43
2021/07/20 05:54:15;;;;;;;5.37;3.80;;;14.60;99.90;;;;;;5099318;28;20930;-45
2021/07/20 05:56:51;;;;;;;6.83;3.90;;;14.60;99.90;;;;;;5103132;28;20401;-44
2021/07/20 05:59:31;;;;;;;8.47;3.90;;;14.70;99.90;;;;;;5088696;28;20221;-44
2021/07/20 06:02:04;;;;;;;7.20;3.40;;;14.70;99.90;;;;;;5064044;28;20206;-44
2021/07/20 06:04:31;;;;;;;4.53;3.27;;;14.70;99.90;;;;;;5100048;28;20233;-46
2021/07/20 06:07:02;;;;;;;5.97;3.93;;;14.80;99.90;;;;;;5095223;28;20208;-46
2021/07/20 06:09:29;;;;;;;6.13;3.83;;;14.80;99.90;;;;;;5103915;28;20690;-44
2021/07/20 06:11:58;;;;;;;4.80;3.53;;;14.90;99.90;;;;;;5104890;28;20193;-50
2021/07/20 06:14:25;;;;;;;4.57;3.90;;;14.90;99.90;;;;;;5094824;28;20210;-44
2021/07/20 06:16:53;;;;;;;6.10;3.60;;;14.90;99.90;;;;;;5086614;28;20212;-46
2021/07/20 06:19:20;;;;;;;6.47;3.47;;;14.90;99.90;;;;;;5104945;28;20208;-44
2021/07/20 06:21:49;;;;;;;4.70;3.37;;;15.00;99.90;;;;;;5099206;28;20208;-44
2021/07/20 06:24:24;;;;;;;8.50;3.27;;;15.00;99.90;;;;;;5086124;28;20257;-45
2021/07/20 06:26:51;;;;;;;6.97;3.00;;;15.10;99.90;;;;;;5088960;28;20202;-45
2021/07/20 06:29:18;;;;;;;5.00;3.37;;;15.10;99.90;;;;;;5096076;28;20193;-44
2021/07/20 06:31:46;;;;;;;5.70;3.07;;;15.10;99.90;;;;;;5087699;28;24016;-45
2021/07/20 06:34:15;;;;;;;5.47;3.30;;;15.10;99.90;;;;;;5102471;28;20219;-44
2021/07/20 06:36:43;;;;;;;5.83;2.90;;;15.10;99.90;;;;;;5102758;28;20217;-45
2021/07/20 06:39:10;;;;;;;6.43;3.17;;;15.10;99.90;;;;;;5097908;28;20662;-48
2021/07/20 06:41:38;;;;;;;7.03;2.87;;;15.10;99.90;;;;;;5101000;28;20788;-44
2021/07/20 06:44:06;;;;;;;5.70;3.60;;;15.20;99.90;;;;;;5106297;28;20221;-43
2021/07/20 06:46:35;;;;;;;3.90;3.23;;;15.20;99.90;;;;;;5074961;28;20205;-48
2021/07/20 06:49:03;;;;;;;8.33;3.80;;;15.30;99.90;;;;;;5093421;28;20273;-44
2021/07/20 06:51:31;;;;;;;7.63;3.83;;;15.40;99.90;;;;;;5101820;28;20192;-44
2021/07/20 06:53:58;;;;;;;6.60;3.30;;;15.60;99.90;;;;;;5098144;28;20225;-44
2021/07/20 06:56:29;;;;;;;5.67;3.47;;;15.70;99.90;;;;;;5100000;28;20230;-48
2021/07/20 06:58:57;;;;;;;6.73;3.37;;;15.80;99.90;;;;;;5092919;28;20293;-44
2021/07/20 07:01:28;;;;;;;6.37;4.27;;;15.90;99.90;;;;;;5095731;28;20197;-45
2021/07/20 07:04:02;;;;;;;6.07;3.93;;;16.00;99.90;;;;;;5091356;28;20897;-46
2021/07/20 07:06:31;;;;;;;4.83;3.73;;;16.00;99.90;;;;;;5093562;28;20782;-44
2021/07/20 07:08:58;;;;;;;4.87;3.67;;;16.10;99.90;;;;;;5099085;28;20280;-44
2021/07/20 07:11:27;;;;;;;5.57;3.40;;;16.20;99.90;;;;;;5087654;28;20686;-46
2021/07/20 07:13:54;;;;;;;6.60;4.37;;;16.30;99.90;;;;;;5103350;28;20213;-45
2021/07/20 07:16:22;;;;;;;6.43;3.93;;;16.30;99.90;;;;;;5084817;28;20722;-44
2021/07/20 07:18:49;;;;;;;4.33;3.73;;;16.40;99.90;;;;;;5089043;28;20671;-44
2021/07/20 07:21:18;;;;;;;6.93;4.10;;;16.40;99.90;;;;;;5089344;28;20198;-45
2021/07/20 07:23:50;;;;;;;7.90;4.73;;;16.40;99.90;;;;;;5083996;28;20887;-44
2021/07/20 07:26:18;;;;;;;6.20;4.17;;;16.50;99.90;;;;;;5087388;28;20194;-44
2021/07/20 07:28:46;;;;;;;8.33;4.43;;;16.60;99.90;;;;;;5098732;28;20194;-48
2021/07/20 07:31:14;;;;;;;6.97;5.03;;;16.70;99.90;;;;;;5093724;28;20186;-46
2021/07/20 07:33:41;;;;;;;9.57;5.00;;;16.70;99.90;;;;;;5075778;28;20205;-44
2021/07/20 07:36:08;;;;;;;4.47;4.00;;;16.60;99.90;;;;;;5103048;28;20704;-47
2021/07/20 07:38:37;;;;;;;6.83;4.70;;;16.60;99.90;;;;;;5090403;28;20189;-44
2021/07/20 07:41:06;;;;;;;6.60;4.80;;;16.70;99.90;;;;;;5086956;28;20198;-44
2021/07/20 07:43:34;;;;;;;6.70;4.70;;;16.70;99.90;;;;;;5101237;28;20182;-44
2021/07/20 07:46:03;;;;;;;5.87;4.70;;;16.70;99.90;;;;;;5090063;28;20672;-46
2021/07/20 07:48:36;;;;;;;5.17;4.57;;;16.80;99.90;;;;;;5085221;28;20196;-46
2021/07/20 07:51:04;;;;;;;5.77;4.57;;;16.90;99.90;;;;;;5085276;28;20212;-47
2021/07/20 07:53:31;;;;;;;6.30;4.23;;;17.00;99.90;;;;;;5096597;28;20193;-46
2021/07/20 07:55:59;;;;;;;7.43;4.80;;;17.00;99.90;;;;;;5095812;28;20220;-49
2021/07/20 07:58:29;;;;;;;7.80;5.43;;;17.10;99.90;;;;;;5094368;28;20204;-51
2021/07/20 08:00:57;;;;;;;7.47;4.97;;;17.30;99.90;;;;;;5090239;28;20247;-49
2021/07/20 08:03:28;;;;;;;5.03;4.30;;;17.40;99.90;;;;;;5094526;28;20200;-56
2021/07/20 08:05:55;;;;;;;6.93;5.03;;;17.40;99.90;;;;;;5082041;28;20204;-44
2021/07/20 08:08:22;;;;;;;6.70;5.13;;;17.40;99.90;;;;;;5088566;28;20198;-44
2021/07/20 08:10:50;;;;;;;8.17;4.47;;;17.40;99.90;;;;;;5084464;28;20290;-48
2021/07/20 08:13:19;;;;;;;7.33;4.83;;;17.40;99.90;;;;;;5074814;28;20205;-43
2021/07/20 08:15:49;;;;;;;8.03;4.80;;;17.40;99.90;;;;;;5091665;28;20236;-45
2021/07/20 08:18:16;;;;;;;7.97;4.70;;;17.40;99.90;;;;;;5076724;28;20497;-43
2021/07/20 08:20:44;;;;;;;7.67;4.60;;;17.50;99.90;;;;;;5082516;28;20202;-45
2021/07/20 08:23:11;;;;;;;6.93;4.40;;;17.40;99.90;;;;;;5095207;28;20600;-45
2021/07/20 08:25:41;;;;;;;8.63;4.70;;;17.50;99.90;;;;;;5082016;28;20228;-44
2021/07/20 08:28:09;;;;;;;5.43;4.90;;;17.50;99.90;;;;;;5080205;28;20193;-43
2021/07/20 08:30:39;;;;;;;7.43;4.50;;;17.60;99.90;;;;;;5102536;28;20208;-47
2021/07/20 08:33:12;;;;;;;6.17;4.63;;;17.70;99.90;;;;;;5087082;28;20906;-43
2021/07/20 08:35:42;;;;;;;6.07;4.53;;;17.70;99.90;;;;;;5077829;28;20237;-44
2021/07/20 08:38:12;;;;;;;5.07;4.13;;;17.70;99.90;;;;;;5092683;28;20827;-46
2021/07/20 08:40:54;;;;;;;4.77;4.20;;;17.60;99.90;;;;;;5101963;28;20600;-45
2021/07/20 08:43:31;;;;;;;5.33;3.83;;;17.70;99.90;;;;;;5093150;28;20208;-44
2021/07/20 08:46:10;;;;;;;5.10;4.50;;;17.80;99.90;;;;;;5090405;28;20185;-63
2021/07/20 08:48:46;;;;;;;5.50;4.20;;;17.90;99.90;;;;;;5099099;28;20201;-66
2021/07/20 08:51:19;;;;;;;5.23;4.20;;;17.90;99.90;;;;;;5085234;28;20215;-61
2021/07/20 08:53:52;;;;;;;8.63;4.70;;;18.00;99.90;;;;;;5090896;28;20202;-67
2021/07/20 08:56:23;;;;;;;6.00;4.20;;;18.00;99.90;;;;;;5101550;28;20213;-62
2021/07/20 08:58:55;;;;;;;8.27;4.73;;;18.10;99.90;;;;;;5093134;28;20201;-66
2021/07/20 09:01:26;;;;;;;4.80;4.03;;;18.10;99.90;;;;;;5100857;28;20208;-61
2021/07/20 09:04:00;;;;;;;8.73;5.20;;;18.20;99.90;;;;;;5099372;28;20706;-66
2021/07/20 09:06:30;;;;;;;5.00;4.43;;;18.20;99.90;;;;;;5088954;28;20667;-63
2021/07/20 09:09:04;;;;;;;7.63;4.27;;;18.20;99.90;;;;;;5078773;28;20194;-63
2021/07/20 09:11:38;;;;;;;8.37;4.80;;;18.30;99.90;;;;;;5100587;28;20264;-63
2021/07/20 09:14:14;;;;;;;6.67;4.30;;;18.30;99.90;;;;;;5085507;28;20217;-62
2021/07/20 09:16:45;;;;;;;5.67;4.43;;;18.40;99.90;;;;;;5095899;28;20618;-44
2021/07/20 09:19:21;;;;;;;5.53;5.03;;;18.40;99.90;;;;;;5090798;28;20292;-46
2021/07/20 09:21:51;;;;;;;5.00;4.50;;;18.40;99.90;;;;;;5084638;28;20193;-47
2021/07/20 09:24:28;;;;;;;4.83;4.33;;;18.40;99.90;;;;;;5083004;28;20216;-44
2021/07/20 09:27:04;;;;;;;5.73;4.03;;;18.50;99.90;;;;;;5097237;28;20561;-46
2021/07/20 09:29:32;;;;;;;5.63;4.10;;;18.60;99.90;;;;;;5085806;28;20574;-43
2021/07/20 09:32:22;;;;;;;4.63;4.23;;;18.70;99.90;;;;;;5086295;28;20198;-45
2021/07/20 09:35:09;;;;;;;7.00;5.10;;;18.70;99.90;;;;;;5093667;28;20205;-45
2021/07/20 09:37:41;;;;;;;8.47;4.30;;;18.70;99.90;;;;;;5094475;28;20209;-44
2021/07/20 09:40:18;;;;;;;5.57;4.20;;;18.80;99.90;;;;;;5087992;28;21038;-44
2021/07/20 09:42:54;;;;;;;6.27;4.63;;;18.80;99.90;;;;;;5099638;28;20182;-44
2021/07/20 09:45:25;;;;;;;8.23;4.43;;;18.80;99.90;;;;;;5101184;28;20221;-45
2021/07/20 09:47:59;;;;;;;5.13;4.00;;;18.70;99.90;;;;;;5086151;28;20202;-47
2021/07/20 09:50:29;;;;;;;6.57;4.47;;;18.70;99.90;;;;;;5089619;28;20205;-46
2021/07/20 09:53:18;;;;;;;4.43;3.60;;;18.60;99.90;;;;;;5101308;28;20200;-50
2021/07/20 09:55:56;;;;;;;5.13;3.90;;;18.60;99.90;;;;;;5088115;28;20229;-48
2021/07/20 09:58:30;;;;;;;4.57;3.90;;;18.70;99.90;;;;;;5106482;28;20204;-43
2021/07/20 10:01:03;;;;;;;5.00;4.07;;;18.80;99.90;;;;;;5090955;28;20193;-45
2021/07/20 10:03:39;;;;;;;4.40;3.90;;;19.00;99.90;;;;;;5106570;28;20285;-44
2021/07/20 10:06:14;;;;;;;6.17;4.13;;;19.10;99.90;;;;;;5093418;28;20260;-44
2021/07/20 10:08:49;;;;;;;6.23;4.43;;;19.20;99.90;;;;;;5100681;28;20298;-46
2021/07/20 10:11:22;;;;;;;5.00;4.10;;;19.20;99.90;;;;;;5091154;28;20209;-45
2021/07/20 10:14:25;;;;;;;6.60;4.97;;;19.20;99.90;;;;;;5101012;28;20197;-47
2021/07/20 10:16:58;;;;;;;6.17;4.13;;;19.10;99.90;;;;;;5078829;28;20220;-47
2021/07/20 10:19:35;;;;;;;4.53;3.93;;;19.10;99.90;;;;;;5093644;28;20198;-46
2021/07/20 10:22:08;;;;;;;5.00;3.93;;;19.20;99.90;;;;;;5089116;28;20197;-44
2021/07/20 10:24:39;;;;;;;6.50;4.53;;;19.30;99.90;;;;;;5087265;28;20232;-46
2021/07/20 10:27:13;;;;;;;4.90;4.40;;;19.50;99.90;;;;;;5087427;28;20208;-47
2021/07/20 10:29:49;;;;;;;5.10;4.33;;;19.60;99.90;;;;;;5105409;28;20557;-43
2021/07/20 10:32:20;;;;;;;5.40;4.87;;;19.60;99.90;;;;;;5095002;28;20197;-46
2021/07/20 10:34:54;;;;;;;5.90;4.50;;;19.70;99.90;;;;;;5105652;28;20228;-43
2021/07/20 10:37:25;;;;;;;4.63;4.00;;;19.80;99.90;;;;;;5102272;28;20220;-43
2021/07/20 10:39:59;;;;;;;5.53;4.80;;;19.80;99.90;;;;;;5104859;28;20662;-45
2021/07/20 10:42:31;;;;;;;4.77;4.27;;;19.90;99.90;;;;;;5090549;28;20293;-43
2021/07/20 10:45:02;;;;;;;4.57;4.03;;;19.90;99.90;;;;;;5092062;28;20210;-44
2021/07/20 10:47:33;;;;;;;6.63;4.03;;;19.80;99.90;;;;;;5101404;28;20202;-46
2021/07/20 10:50:06;;;;;;;5.23;4.37;;;19.80;99.90;;;;;;5092130;28;20204;-46
2021/07/20 10:52:52;;;;;;;6.23;3.73;;;19.80;99.90;;;;;;5099636;28;20217;-47
2021/07/20 10:55:25;;;;;;;5.33;3.97;;;19.70;99.90;;;;;;5101475;28;20875;-43
2021/07/20 10:57:59;;;;;;;6.73;4.80;;;19.70;99.90;;;;;;5086468;28;20239;-44
2021/07/20 11:00:33;;;;;;;6.17;4.23;;;19.80;99.90;;;;;;5093417;28;20200;-45
2021/07/20 11:03:09;;;;;;;4.43;3.97;;;19.90;99.90;;;;;;5101021;28;20234;-45
2021/07/20 11:05:38;;;;;;;5.53;4.20;;;20.10;99.90;;;;;;5092208;28;20217;-46
2021/07/20 11:08:08;;;;;;;5.97;4.57;;;20.30;99.90;;;;;;5098347;28;20220;-43
2021/07/20 11:10:38;;;;;;;5.57;4.20;;;20.30;99.90;;;;;;5092619;28;20194;-44
2021/07/20 11:13:07;;;;;;;5.70;4.20;;;20.20;99.90;;;;;;5087117;28;20216;-44
2021/07/20 11:15:36;;;;;;;5.60;4.07;;;20.00;99.90;;;;;;5101180;28;20209;-43
2021/07/20 11:18:07;;;;;;;4.73;4.13;;;20.00;99.90;;;;;;5085461;28;20198;-43
2021/07/20 11:20:35;;;;;;;5.30;4.40;;;20.00;99.90;;;;;;5080018;28;20194;-45
2021/07/20 11:23:03;;;;;;;6.73;4.40;;;20.00;99.90;;;;;;5084812;28;20562;-43
2021/07/20 11:25:32;;;;;;;6.30;4.63;;;20.00;99.90;;;;;;5082222;28;20212;-48
2021/07/20 11:28:00;;;;;;;5.87;4.70;;;20.10;99.90;;;;;;5079147;28;20204;-44
2021/07/20 11:30:30;;;;;;;6.07;5.07;;;20.10;99.90;;;;;;5102996;28;20284;-45
2021/07/20 11:33:02;;;;;;;7.27;4.80;;;20.20;99.90;;;;;;5099096;28;20754;-44
2021/07/20 11:35:32;;;;;;;5.97;5.27;;;20.40;99.90;;;;;;5088462;28;20221;-46
2021/07/20 11:38:05;;;;;;;8.37;5.57;;;20.60;99.90;;;;;;5086117;28;20245;-42
2021/07/20 11:40:39;;;;;;;5.60;5.10;;;20.70;99.90;;;;;;5089918;28;20218;-45
2021/07/20 11:43:09;;;;;;;7.60;5.70;;;20.90;99.90;;;;;;5088068;28;20209;-43
2021/07/20 11:45:47;;;;;;;5.93;5.33;;;21.00;99.90;;;;;;5096210;28;20225;-43
2021/07/20 11:48:14;;;;;;;7.77;5.00;;;21.00;99.90;;;;;;5098305;28;20189;-44
2021/07/20 11:50:49;;;;;;;7.20;5.17;;;21.10;99.90;;;;;;5096339;28;20197;-43
2021/07/20 11:53:23;;;;;;;7.00;5.77;;;21.00;99.90;;;;;;5103725;28;20193;-44
2021/07/20 11:55:54;;;;;;;6.00;5.33;;;21.00;99.90;;;;;;5094020;28;20210;-43
2021/07/20 11:59:13;;;;;;;6.70;5.10;;;21.00;99.90;;;;;;5090158;28;20216;-44
2021/07/20 12:02:09;;;;;;;8.40;5.47;;;20.90;99.90;;;;;;5097042;28;20200;-42
2021/07/20 12:05:07;;;;;;;6.37;5.13;;;20.90;99.90;;;;;;5097384;28;20213;-42
2021/07/20 12:07:39;;;;;;;6.60;5.50;;;20.80;99.90;;;;;;5048875;28;20220;-46
2021/07/20 12:10:16;;;;;;;5.63;4.90;;;20.80;99.90;;;;;;5099486;28;20204;-42
2021/07/20 12:12:52;;;;;;;5.83;4.60;;;21.00;99.90;;;;;;5099696;28;20184;-44
2021/07/20 12:15:20;;;;;;;6.27;5.13;;;21.00;99.90;;;;;;5090500;28;20694;-43
2021/07/20 12:17:48;;;;;;;6.80;5.17;;;21.00;99.90;;;;;;5101050;28;20209;-46
2021/07/20 12:20:16;;;;;;;8.33;5.00;;;20.90;99.90;;;;;;5104126;28;20653;-44
2021/07/20 12:22:47;;;;;;;7.17;5.30;;;20.90;99.90;;;;;;5100399;28;20188;-45
2021/07/20 12:25:15;;;;;;;5.63;5.13;;;21.00;99.90;;;;;;5103887;28;20246;-42
2021/07/20 12:27:42;;;;;;;6.37;5.40;;;21.10;99.90;;;;;;5100263;28;20184;-47
2021/07/20 12:30:13;;;;;;;8.00;5.60;;;21.10;99.90;;;;;;5092151;28;20217;-43
2021/07/20 12:32:41;;;;;;;7.73;5.30;;;21.10;99.90;;;;;;5100071;28;20189;-45
2021/07/20 12:35:10;;;;;;;8.47;5.30;;;21.10;99.90;;;;;;5104175;28;20585;-43
2021/07/20 12:37:38;;;;;;;6.23;5.10;;;21.20;99.90;;;;;;5092638;28;20225;-44
2021/07/20 12:40:05;;;;;;;6.30;5.47;;;21.30;99.90;;;;;;5101161;28;20662;-44
2021/07/20 12:42:36;;;;;;;6.13;5.53;;;21.40;99.90;;;;;;5098197;28;20569;-43
2021/07/20 12:45:06;;;;;;;7.17;5.53;;;21.40;99.90;;;;;;5085145;28;20233;-50
2021/07/20 12:47:46;;;;;;;6.07;5.37;;;21.40;99.90;;;;;;5100387;28;20208;-46
2021/07/20 12:50:14;;;;;;;8.57;6.00;;;21.30;99.90;;;;;;5087530;28;20189;-43
2021/07/20 12:52:43;;;;;;;6.80;5.43;;;21.30;99.90;;;;;;5103393;28;20208;-47
2021/07/20 12:55:12;;;;;;;6.90;5.77;;;21.30;99.90;;;;;;5095596;28;20228;-46
2021/07/20 12:57:39;;;;;;;6.97;5.63;;;21.30;99.90;;;;;;5099832;28;20201;-45
2021/07/20 13:00:08;;;;;;;12.73;5.20;;;21.30;99.90;;;;;;5100747;28;20200;-46
2021/07/20 13:02:35;;;;;;;7.20;4.85;;;21.30;99.90;;;;;;5089026;28;20693;-43
2021/07/20 13:05:07;;;;;;;5.57;4.90;;;21.30;99.90;;;;;;5093151;28;20720;-45
2021/07/20 13:07:35;;;;;;;5.70;5.07;;;21.40;99.90;;;;;;5097603;28;20689;-43
2021/07/20 13:10:03;;;;;;;5.20;4.40;;;21.80;99.90;;;;;;5093460;28;20546;-45
2021/07/20 13:12:31;;;;;;;6.65;3.80;;;22.00;99.90;;;;;;5097346;28;20306;-43